sensor_id;sensor_type;location;lat;lon;timestamp;P1;durP1;ratioP1;P2;durP2;ratioP2
69523;SDS011;56723;42.694;23.286;2023-05-19T08:25:24;8.25;;;5.85;;
69523;SDS011;56723;42.694;23.286;2023-05-19T08:27:52;8.23;;;6.15;;
69523;SDS011;56723;42.694;23.286;2023-05-19T08:30:19;7.07;;;6.18;;
69523;SDS011;56723;42.694;23.286;2023-05-19T08:32:46;13.65;;;7.15;;
69523;SDS011;56723;42.694;23.286;2023-05-19T08:35:14;12.30;;;7.28;;
69523;SDS011;56723;42.694;23.286;2023-05-19T08:37:41;13.30;;;7.28;;
69523;SDS011;56723;42.694;23.286;2023-05-19T08:40:10;8.80;;;6.78;;
69523;SDS011;56723;42.694;23.286;2023-05-19T08:42:43;11.30;;;7.25;;
69523;SDS011;56723;42.694;23.286;2023-05-19T08:45:11;9.27;;;6.43;;
69523;SDS011;56723;42.694;23.286;2023-05-19T08:47:39;8.55;;;6.50;;
69523;SDS011;56723;42.694;23.286;2023-05-19T08:50:08;11.10;;;7.25;;
69523;SDS011;56723;42.694;23.286;2023-05-19T08:53:18;11.27;;;7.55;;
69523;SDS011;56723;42.694;23.286;2023-05-19T08:56:07;10.40;;;7.88;;
69523;SDS011;56723;42.694;23.286;2023-05-19T08:58:48;12.15;;;7.47;;
69523;SDS011;56723;42.694;23.286;2023-05-19T09:01:17;10.15;;;6.80;;
69523;SDS011;56723;42.694;23.286;2023-05-19T09:03:46;8.98;;;6.53;;
69523;SDS011;56723;42.694;23.286;2023-05-19T09:06:15;10.82;;;6.97;;
69523;SDS011;56723;42.694;23.286;2023-05-19T09:08:43;10.30;;;6.78;;
69523;SDS011;56723;42.694;23.286;2023-05-19T09:11:10;8.90;;;6.88;;
69523;SDS011;56723;42.694;23.286;2023-05-19T09:13:38;10.50;;;6.53;;
69523;SDS011;56723;42.694;23.286;2023-05-19T09:16:05;11.07;;;7.10;;
69523;SDS011;56723;42.694;23.286;2023-05-19T09:18:32;8.70;;;6.75;;
69523;SDS011;56723;42.694;23.286;2023-05-19T09:21:00;8.63;;;7.18;;
69523;SDS011;56723;42.694;23.286;2023-05-19T09:23:29;9.18;;;6.63;;
69523;SDS011;56723;42.694;23.286;2023-05-19T09:26:03;11.25;;;7.05;;
69523;SDS011;56723;42.694;23.286;2023-05-19T09:28:34;9.57;;;6.45;;
69523;SDS011;56723;42.694;23.286;2023-05-19T09:31:03;10.63;;;7.47;;
69523;SDS011;56723;42.694;23.286;2023-05-19T09:33:38;12.35;;;7.55;;
69523;SDS011;56723;42.694;23.286;2023-05-19T09:36:09;12.40;;;6.95;;
69523;SDS011;56723;42.694;23.286;2023-05-19T09:38:37;11.63;;;7.95;;
69523;SDS011;56723;42.694;23.286;2023-05-19T09:41:05;9.50;;;7.17;;
69523;SDS011;56723;42.694;23.286;2023-05-19T09:43:33;10.35;;;6.65;;
69523;SDS011;56723;42.694;23.286;2023-05-19T09:46:04;9.98;;;6.38;;
69523;SDS011;56723;42.694;23.286;2023-05-19T09:48:40;14.45;;;7.35;;
69523;SDS011;56723;42.694;23.286;2023-05-19T09:51:07;7.03;;;6.32;;
69523;SDS011;56723;42.694;23.286;2023-05-19T09:53:37;9.65;;;7.20;;
69523;SDS011;56723;42.694;23.286;2023-05-19T09:56:04;8.65;;;6.85;;
69523;SDS011;56723;42.694;23.286;2023-05-19T09:58:34;9.93;;;6.70;;
69523;SDS011;56723;42.694;23.286;2023-05-19T10:01:02;9.45;;;7.00;;
69523;SDS011;56723;42.694;23.286;2023-05-19T10:03:30;8.43;;;6.70;;
69523;SDS011;56723;42.694;23.286;2023-05-19T10:06:00;9.90;;;6.25;;
69523;SDS011;56723;42.694;23.286;2023-05-19T10:08:30;9.35;;;7.40;;
69523;SDS011;56723;42.694;23.286;2023-05-19T10:10:59;10.93;;;7.53;;
69523;SDS011;56723;42.694;23.286;2023-05-19T10:13:28;9.50;;;7.00;;
69523;SDS011;56723;42.694;23.286;2023-05-19T10:15:55;9.82;;;7.03;;
69523;SDS011;56723;42.694;23.286;2023-05-19T10:18:25;8.95;;;6.65;;
69523;SDS011;56723;42.694;23.286;2023-05-19T10:20:56;10.10;;;6.10;;
69523;SDS011;56723;42.694;23.286;2023-05-19T10:23:24;7.82;;;6.20;;
69523;SDS011;56723;42.694;23.286;2023-05-19T10:25:53;9.27;;;7.82;;
69523;SDS011;56723;42.694;23.286;2023-05-19T10:28:22;10.27;;;7.03;;
69523;SDS011;56723;42.694;23.286;2023-05-19T10:30:55;8.38;;;5.97;;
69523;SDS011;56723;42.694;23.286;2023-05-19T10:33:39;8.70;;;6.63;;
69523;SDS011;56723;42.694;23.286;2023-05-19T10:39:03;10.00;;;7.07;;
69523;SDS011;56723;42.694;23.286;2023-05-19T10:46:47;8.85;;;6.85;;
69523;SDS011;56723;42.694;23.286;2023-05-19T10:49:20;8.50;;;6.38;;
69523;SDS011;56723;42.694;23.286;2023-05-19T10:51:50;12.45;;;7.10;;
69523;SDS011;56723;42.694;23.286;2023-05-19T10:54:37;9.25;;;6.75;;
69523;SDS011;56723;42.694;23.286;2023-05-19T10:59:39;11.18;;;6.07;;
69523;SDS011;56723;42.694;23.286;2023-05-19T11:02:07;8.70;;;5.90;;
69523;SDS011;56723;42.694;23.286;2023-05-19T11:04:56;10.25;;;6.22;;
69523;SDS011;56723;42.694;23.286;2023-05-19T11:10:04;11.35;;;6.60;;
69523;SDS011;56723;42.694;23.286;2023-05-19T11:12:43;10.45;;;6.47;;
69523;SDS011;56723;42.694;23.286;2023-05-19T11:15:12;11.20;;;6.13;;
69523;SDS011;56723;42.694;23.286;2023-05-19T11:17:41;7.57;;;6.10;;
69523;SDS011;56723;42.694;23.286;2023-05-19T11:20:23;12.00;;;6.65;;
69523;SDS011;56723;42.694;23.286;2023-05-19T11:25:51;11.57;;;6.45;;
69523;SDS011;56723;42.694;23.286;2023-05-19T11:28:22;10.20;;;6.35;;
69523;SDS011;56723;42.694;23.286;2023-05-19T11:30:55;9.50;;;6.05;;
69523;SDS011;56723;42.694;23.286;2023-05-19T11:33:24;7.07;;;5.63;;
69523;SDS011;56723;42.694;23.286;2023-05-19T11:35:55;7.18;;;6.15;;
69523;SDS011;56723;42.694;23.286;2023-05-19T11:38:24;10.25;;;6.18;;
69523;SDS011;56723;42.694;23.286;2023-05-19T11:40:52;9.87;;;6.63;;
69523;SDS011;56723;42.694;23.286;2023-05-19T11:43:23;10.23;;;5.93;;
69523;SDS011;56723;42.694;23.286;2023-05-19T11:45:52;8.85;;;5.88;;
69523;SDS011;56723;42.694;23.286;2023-05-19T11:48:20;8.07;;;6.18;;
69523;SDS011;56723;42.694;23.286;2023-05-19T11:50:48;7.50;;;5.60;;
69523;SDS011;56723;42.694;23.286;2023-05-19T11:53:16;7.75;;;5.72;;
69523;SDS011;56723;42.694;23.286;2023-05-19T11:55:45;7.95;;;6.15;;
69523;SDS011;56723;42.694;23.286;2023-05-19T11:58:14;8.65;;;6.47;;
69523;SDS011;56723;42.694;23.286;2023-05-19T12:00:43;8.48;;;6.32;;
69523;SDS011;56723;42.694;23.286;2023-05-19T12:03:11;9.07;;;6.32;;
69523;SDS011;56723;42.694;23.286;2023-05-19T12:05:42;7.65;;;6.78;;
69523;SDS011;56723;42.694;23.286;2023-05-19T12:08:12;9.95;;;6.32;;
69523;SDS011;56723;42.694;23.286;2023-05-19T12:10:39;9.40;;;5.85;;
69523;SDS011;56723;42.694;23.286;2023-05-19T12:13:07;8.60;;;6.45;;
69523;SDS011;56723;42.694;23.286;2023-05-19T12:15:37;10.90;;;7.57;;
69523;SDS011;56723;42.694;23.286;2023-05-19T12:18:05;8.75;;;7.63;;
69523;SDS011;56723;42.694;23.286;2023-05-19T12:20:32;9.35;;;6.50;;
69523;SDS011;56723;42.694;23.286;2023-05-19T12:23:01;9.88;;;7.28;;
69523;SDS011;56723;42.694;23.286;2023-05-19T12:25:29;9.23;;;7.20;;
69523;SDS011;56723;42.694;23.286;2023-05-19T12:27:59;10.13;;;7.82;;
69523;SDS011;56723;42.694;23.286;2023-05-19T12:30:29;15.75;;;8.20;;
69523;SDS011;56723;42.694;23.286;2023-05-19T12:32:58;8.32;;;6.68;;
69523;SDS011;56723;42.694;23.286;2023-05-19T12:35:28;8.48;;;6.20;;
69523;SDS011;56723;42.694;23.286;2023-05-19T12:38:05;10.73;;;6.35;;
69523;SDS011;56723;42.694;23.286;2023-05-19T12:40:33;9.20;;;6.07;;
69523;SDS011;56723;42.694;23.286;2023-05-19T12:43:01;8.93;;;6.30;;
69523;SDS011;56723;42.694;23.286;2023-05-19T12:45:33;7.97;;;6.22;;
69523;SDS011;56723;42.694;23.286;2023-05-19T12:48:02;9.95;;;5.82;;
69523;SDS011;56723;42.694;23.286;2023-05-19T12:50:31;5.90;;;5.30;;
69523;SDS011;56723;42.694;23.286;2023-05-19T12:53:00;8.57;;;5.50;;
69523;SDS011;56723;42.694;23.286;2023-05-19T12:55:28;6.60;;;5.28;;
69523;SDS011;56723;42.694;23.286;2023-05-19T12:57:56;9.75;;;5.32;;
69523;SDS011;56723;42.694;23.286;2023-05-19T13:00:24;9.27;;;4.60;;
69523;SDS011;56723;42.694;23.286;2023-05-19T13:03:07;5.47;;;4.60;;
69523;SDS011;56723;42.694;23.286;2023-05-19T13:05:40;7.47;;;4.20;;
69523;SDS011;56723;42.694;23.286;2023-05-19T13:08:10;7.65;;;5.03;;
69523;SDS011;56723;42.694;23.286;2023-05-19T13:10:39;5.45;;;4.50;;
69523;SDS011;56723;42.694;23.286;2023-05-19T13:15:36;6.38;;;4.97;;
69523;SDS011;56723;42.694;23.286;2023-05-19T13:18:07;6.82;;;4.93;;
69523;SDS011;56723;42.694;23.286;2023-05-19T13:20:36;5.97;;;4.47;;
69523;SDS011;56723;42.694;23.286;2023-05-19T13:23:04;4.55;;;3.50;;
69523;SDS011;56723;42.694;23.286;2023-05-19T13:25:32;5.18;;;3.80;;
69523;SDS011;56723;42.694;23.286;2023-05-19T13:28:00;6.82;;;4.63;;
69523;SDS011;56723;42.694;23.286;2023-05-19T13:30:31;6.60;;;4.05;;
69523;SDS011;56723;42.694;23.286;2023-05-19T13:33:00;5.03;;;3.55;;
69523;SDS011;56723;42.694;23.286;2023-05-19T13:35:27;6.95;;;4.20;;
69523;SDS011;56723;42.694;23.286;2023-05-19T13:37:54;7.25;;;4.18;;
69523;SDS011;56723;42.694;23.286;2023-05-19T13:40:21;5.07;;;4.22;;
69523;SDS011;56723;42.694;23.286;2023-05-19T13:42:49;6.03;;;3.70;;
69523;SDS011;56723;42.694;23.286;2023-05-19T13:45:16;6.88;;;4.53;;
69523;SDS011;56723;42.694;23.286;2023-05-19T13:47:43;4.18;;;3.70;;
69523;SDS011;56723;42.694;23.286;2023-05-19T13:50:11;7.35;;;4.50;;
69523;SDS011;56723;42.694;23.286;2023-05-19T13:52:38;5.13;;;4.20;;
69523;SDS011;56723;42.694;23.286;2023-05-19T13:55:05;11.13;;;4.78;;
69523;SDS011;56723;42.694;23.286;2023-05-19T13:57:33;7.05;;;4.18;;
69523;SDS011;56723;42.694;23.286;2023-05-19T14:00:01;7.80;;;4.00;;
69523;SDS011;56723;42.694;23.286;2023-05-19T14:02:39;6.78;;;4.20;;
69523;SDS011;56723;42.694;23.286;2023-05-19T14:05:07;8.90;;;4.85;;
69523;SDS011;56723;42.694;23.286;2023-05-19T14:07:34;13.23;;;5.45;;
69523;SDS011;56723;42.694;23.286;2023-05-19T14:10:01;5.57;;;4.15;;
69523;SDS011;56723;42.694;23.286;2023-05-19T14:12:31;7.70;;;5.68;;
69523;SDS011;56723;42.694;23.286;2023-05-19T14:15:08;6.00;;;5.00;;
69523;SDS011;56723;42.694;23.286;2023-05-19T14:17:37;6.18;;;4.50;;
69523;SDS011;56723;42.694;23.286;2023-05-19T14:20:04;7.65;;;5.30;;
69523;SDS011;56723;42.694;23.286;2023-05-19T14:22:31;7.25;;;5.20;;
69523;SDS011;56723;42.694;23.286;2023-05-19T14:24:58;7.40;;;4.70;;
69523;SDS011;56723;42.694;23.286;2023-05-19T14:27:26;7.18;;;5.05;;
69523;SDS011;56723;42.694;23.286;2023-05-19T14:29:53;9.20;;;5.50;;
69523;SDS011;56723;42.694;23.286;2023-05-19T14:32:20;7.55;;;5.50;;
69523;SDS011;56723;42.694;23.286;2023-05-19T14:34:48;8.18;;;5.25;;
69523;SDS011;56723;42.694;23.286;2023-05-19T14:37:18;5.80;;;5.20;;
69523;SDS011;56723;42.694;23.286;2023-05-19T14:39:45;5.85;;;5.20;;
69523;SDS011;56723;42.694;23.286;2023-05-19T14:42:13;7.00;;;5.28;;
69523;SDS011;56723;42.694;23.286;2023-05-19T14:44:40;9.07;;;5.78;;
69523;SDS011;56723;42.694;23.286;2023-05-19T14:47:07;8.85;;;6.25;;
69523;SDS011;56723;42.694;23.286;2023-05-19T14:49:36;10.18;;;5.22;;
69523;SDS011;56723;42.694;23.286;2023-05-19T14:52:04;6.72;;;4.35;;
69523;SDS011;56723;42.694;23.286;2023-05-19T14:54:31;8.25;;;5.63;;
69523;SDS011;56723;42.694;23.286;2023-05-19T14:56:58;9.30;;;5.50;;
69523;SDS011;56723;42.694;23.286;2023-05-19T14:59:25;8.00;;;5.65;;
69523;SDS011;56723;42.694;23.286;2023-05-19T15:01:53;7.55;;;5.40;;
69523;SDS011;56723;42.694;23.286;2023-05-19T15:04:20;6.35;;;4.82;;
69523;SDS011;56723;42.694;23.286;2023-05-19T15:06:47;7.75;;;5.10;;
69523;SDS011;56723;42.694;23.286;2023-05-19T15:09:34;7.78;;;4.85;;
69523;SDS011;56723;42.694;23.286;2023-05-19T15:12:01;6.13;;;4.07;;
69523;SDS011;56723;42.694;23.286;2023-05-19T15:14:29;7.82;;;5.28;;
69523;SDS011;56723;42.694;23.286;2023-05-19T15:16:56;8.18;;;4.30;;
69523;SDS011;56723;42.694;23.286;2023-05-19T15:19:24;7.53;;;4.90;;
69523;SDS011;56723;42.694;23.286;2023-05-19T15:21:52;7.20;;;4.72;;
69523;SDS011;56723;42.694;23.286;2023-05-19T15:24:19;8.38;;;4.47;;
69523;SDS011;56723;42.694;23.286;2023-05-19T15:26:46;6.40;;;4.00;;
69523;SDS011;56723;42.694;23.286;2023-05-19T15:29:13;7.20;;;5.85;;
69523;SDS011;56723;42.694;23.286;2023-05-19T15:31:41;7.25;;;4.95;;
69523;SDS011;56723;42.694;23.286;2023-05-19T15:34:08;6.43;;;4.82;;
69523;SDS011;56723;42.694;23.286;2023-05-19T15:36:35;7.78;;;4.72;;
69523;SDS011;56723;42.694;23.286;2023-05-19T15:39:02;5.85;;;4.20;;
69523;SDS011;56723;42.694;23.286;2023-05-19T15:41:29;5.68;;;4.35;;
69523;SDS011;56723;42.694;23.286;2023-05-19T15:43:56;5.72;;;4.07;;
69523;SDS011;56723;42.694;23.286;2023-05-19T15:46:26;7.07;;;4.50;;
69523;SDS011;56723;42.694;23.286;2023-05-19T15:48:53;5.13;;;3.95;;
69523;SDS011;56723;42.694;23.286;2023-05-19T15:51:22;5.63;;;4.28;;
69523;SDS011;56723;42.694;23.286;2023-05-19T15:53:49;5.25;;;4.60;;
69523;SDS011;56723;42.694;23.286;2023-05-19T15:56:17;8.85;;;5.07;;
69523;SDS011;56723;42.694;23.286;2023-05-19T15:58:44;6.07;;;4.90;;
69523;SDS011;56723;42.694;23.286;2023-05-19T16:01:12;6.93;;;5.05;;
69523;SDS011;56723;42.694;23.286;2023-05-19T16:03:41;7.72;;;4.20;;
69523;SDS011;56723;42.694;23.286;2023-05-19T16:06:09;7.80;;;5.30;;
69523;SDS011;56723;42.694;23.286;2023-05-19T16:08:36;6.00;;;5.05;;
69523;SDS011;56723;42.694;23.286;2023-05-19T16:11:04;9.70;;;5.00;;
69523;SDS011;56723;42.694;23.286;2023-05-19T16:13:31;9.10;;;5.30;;
69523;SDS011;56723;42.694;23.286;2023-05-19T16:15:59;6.82;;;5.25;;
69523;SDS011;56723;42.694;23.286;2023-05-19T16:18:26;7.90;;;5.25;;
69523;SDS011;56723;42.694;23.286;2023-05-19T16:20:56;5.50;;;3.92;;
69523;SDS011;56723;42.694;23.286;2023-05-19T16:23:23;8.90;;;4.75;;
69523;SDS011;56723;42.694;23.286;2023-05-19T16:25:50;9.57;;;5.07;;
69523;SDS011;56723;42.694;23.286;2023-05-19T16:28:20;9.85;;;6.30;;
69523;SDS011;56723;42.694;23.286;2023-05-19T16:30:50;11.13;;;5.00;;
69523;SDS011;56723;42.694;23.286;2023-05-19T16:33:17;6.13;;;5.22;;
69523;SDS011;56723;42.694;23.286;2023-05-19T16:35:44;11.25;;;6.03;;
69523;SDS011;56723;42.694;23.286;2023-05-19T16:38:11;8.52;;;5.93;;
69523;SDS011;56723;42.694;23.286;2023-05-19T16:40:38;7.90;;;5.78;;
69523;SDS011;56723;42.694;23.286;2023-05-19T16:43:06;8.13;;;5.38;;
69523;SDS011;56723;42.694;23.286;2023-05-19T16:45:33;6.32;;;5.70;;
69523;SDS011;56723;42.694;23.286;2023-05-19T16:48:00;9.82;;;7.55;;
69523;SDS011;56723;42.694;23.286;2023-05-19T16:50:27;10.18;;;5.45;;
69523;SDS011;56723;42.694;23.286;2023-05-19T16:52:55;8.30;;;6.05;;
69523;SDS011;56723;42.694;23.286;2023-05-19T16:55:22;9.02;;;6.05;;
69523;SDS011;56723;42.694;23.286;2023-05-19T16:57:50;7.30;;;5.38;;
69523;SDS011;56723;42.694;23.286;2023-05-19T17:02:28;10.35;;;6.00;;
